Time;durP1;ratioP1;P1;durP2;ratioP2;P2;SDS_P1;SDS_P2;PMS_P1;PMS_P2;Temp;Humidity;BMP_temperature;BMP_pressure;BME280_temperature;BME280_humidity;BME280_pressure;Samples;Min_cycle;Max_cycle;Signal;HPM_P1;HPM_P2
2021/04/02 00:00:45;;;;;;;10.07;4.70;;;256.80;2252.80;;;;;;5098225;28;20024;-70
2021/04/02 00:03:23;;;;;;;7.00;4.32;;;256.80;2252.80;;;;;;5098338;28;20050;-71
2021/04/02 00:05:50;;;;;;;8.35;4.82;;;256.70;2252.80;;;;;;5098138;28;20031;-70
2021/04/02 00:08:17;;;;;;;7.15;4.18;;;256.70;2252.80;;;;;;5098299;28;20036;-71
2021/04/02 00:10:49;;;;;;;7.10;3.88;;;256.70;2252.80;;;;;;5098211;28;20031;-69
2021/04/02 00:13:18;;;;;;;6.13;4.55;;;256.60;2252.80;;;;;;5097406;28;20387;-71
2021/04/02 00:15:44;;;;;;;7.40;4.57;;;256.60;2252.80;;;;;;5097763;28;20031;-70
2021/04/02 00:18:11;;;;;;;8.68;4.97;;;256.60;2252.80;;;;;;5097604;28;20040;-70
2021/04/02 00:20:37;;;;;;;13.35;4.68;;;256.60;2252.80;;;;;;5113173;28;20063;-70
2021/04/02 00:23:08;;;;;;;7.15;4.65;;;256.60;2252.80;;;;;;5097696;28;20430;-71
2021/04/02 00:25:35;;;;;;;9.48;4.55;;;256.60;2252.80;;;;;;5096861;28;20477;-69
2021/04/02 00:28:02;;;;;;;7.63;4.85;;;256.60;2252.80;;;;;;5097987;28;20157;-71
2021/04/02 00:30:43;;;;;;;10.05;4.57;;;256.60;2252.80;;;;;;5097201;28;20453;-71
2021/04/02 00:33:10;;;;;;;11.02;4.97;;;256.60;2252.80;;;;;;5096787;28;20348;-71
2021/04/02 00:35:37;;;;;;;11.45;5.28;;;256.50;2252.80;;;;;;5096793;28;20350;-71
2021/04/02 00:38:05;;;;;;;7.85;5.20;;;256.50;2252.80;;;;;;5096878;28;20419;-70
2021/04/02 00:40:36;;;;;;;8.45;4.80;;;256.60;2252.80;;;;;;5096105;28;20020;-70
2021/04/02 00:43:03;;;;;;;9.10;5.97;;;256.50;2252.80;;;;;;5096297;28;20225;-71
2021/04/02 00:45:28;;;;;;;10.13;5.38;;;256.40;2252.80;;;;;;5096025;28;20032;-70
2021/04/02 00:47:56;;;;;;;9.05;5.32;;;256.40;2252.80;;;;;;5095960;28;20043;-71
2021/04/02 00:50:41;;;;;;;8.95;5.88;;;256.40;2252.80;;;;;;5095654;28;20031;-70
2021/04/02 00:53:08;;;;;;;6.75;4.70;;;256.50;2252.80;;;;;;5094721;28;20044;-71
2021/04/02 00:55:35;;;;;;;9.55;5.50;;;256.40;2252.80;;;;;;5092853;28;20326;-70
2021/04/02 00:58:01;;;;;;;10.02;4.60;;;256.40;2252.80;;;;;;5077811;28;20359;-70
2021/04/02 01:00:27;;;;;;;10.20;5.45;;;256.30;2252.80;;;;;;5095141;28;20020;-71
2021/04/02 01:02:55;;;;;;;11.52;5.20;;;256.30;2252.80;;;;;;5095441;28;20441;-71
2021/04/02 01:05:25;;;;;;;7.75;4.82;;;256.30;2252.80;;;;;;5095655;28;20024;-71
2021/04/02 01:08:00;;;;;;;8.52;4.68;;;256.30;2252.80;;;;;;5095001;28;20031;-71
2021/04/02 01:10:27;;;;;;;8.85;5.45;;;256.30;2252.80;;;;;;5095468;28;20105;-71
2021/04/02 01:13:08;;;;;;;7.18;4.80;;;256.30;2252.80;;;;;;5094982;28;20030;-70
2021/04/02 01:15:42;;;;;;;9.38;4.80;;;256.20;2252.80;;;;;;5092361;28;20035;-71
2021/04/02 01:18:25;;;;;;;8.55;5.22;;;256.30;2252.80;;;;;;5095409;28;20161;-69
2021/04/02 01:20:55;;;;;;;8.43;5.65;;;256.30;2252.80;;;;;;5094838;28;20031;-70
2021/04/02 01:23:27;;;;;;;10.15;5.50;;;256.30;2252.80;;;;;;5095351;28;20043;-70
2021/04/02 01:25:59;;;;;;;8.48;4.82;;;256.40;2252.80;;;;;;5095329;28;20030;-70
2021/04/02 01:29:03;;;;;;;7.32;5.10;;;256.40;2252.80;;;;;;5094615;28;20016;-71
2021/04/02 01:31:29;;;;;;;7.68;5.07;;;256.40;2252.80;;;;;;5012345;28;20128;-69
2021/04/02 01:33:58;;;;;;;9.45;5.07;;;256.40;2252.80;;;;;;5009945;28;20356;-70
2021/04/02 01:36:26;;;;;;;7.00;4.85;;;256.40;2252.80;;;;;;5012339;28;20620;-69
2021/04/02 01:38:54;;;;;;;7.55;5.00;;;256.40;2252.80;;;;;;5011996;28;20053;-70
2021/04/02 01:41:22;;;;;;;7.73;5.57;;;256.40;2252.80;;;;;;5012515;28;20026;-71
2021/04/02 01:43:54;;;;;;;10.38;6.45;;;256.40;2252.80;;;;;;5012399;28;20026;-69
2021/04/02 01:46:22;;;;;;;10.23;5.15;;;256.30;2252.80;;;;;;5012844;28;20767;-70
2021/04/02 01:48:54;;;;;;;13.90;5.43;;;256.30;2252.80;;;;;;5012683;28;20423;-71
2021/04/02 01:51:22;;;;;;;9.43;5.68;;;256.40;2252.80;;;;;;5013727;28;20516;-70
2021/04/02 01:53:50;;;;;;;10.25;6.32;;;256.30;2252.80;;;;;;5013397;28;20034;-70
2021/04/02 01:56:17;;;;;;;8.65;5.55;;;256.30;2252.80;;;;;;5013238;28;20045;-70
2021/04/02 01:58:45;;;;;;;8.85;5.53;;;256.30;2252.80;;;;;;5012633;28;20072;-71
2021/04/02 02:01:13;;;;;;;11.65;5.70;;;256.30;2252.80;;;;;;5012838;28;20034;-70
2021/04/02 02:03:42;;;;;;;8.63;5.68;;;256.30;2252.80;;;;;;5013083;28;20104;-69
2021/04/02 02:06:08;;;;;;;;;;;256.30;2252.80;;;;;;5077943;28;20688;-69
2021/04/02 02:08:36;;;;;;;8.63;5.78;;;256.20;2252.80;;;;;;5095959;28;19912;-69
2021/04/02 02:11:16;;;;;;;10.15;6.38;;;256.10;2252.80;;;;;;5095435;28;20327;-69
2021/04/02 02:13:52;;;;;;;8.63;5.35;;;256.30;2252.80;;;;;;5095553;28;20319;-70
2021/04/02 02:16:21;;;;;;;7.95;5.57;;;256.20;2252.80;;;;;;5095281;28;20055;-71
2021/04/02 02:18:51;;;;;;;;;;;256.20;2252.80;;;;;;5095505;28;20028;-70
2021/04/02 02:21:17;;;;;;;11.60;5.32;;;256.20;2252.80;;;;;;5095612;28;20036;-70
2021/04/02 02:23:44;;;;;;;12.73;5.20;;;256.20;2252.80;;;;;;5095299;28;20419;-70
2021/04/02 02:26:10;;;;;;;8.98;5.00;;;256.10;2252.80;;;;;;5094773;28;20031;-70
2021/04/02 02:28:36;;;;;;;11.45;5.65;;;256.10;2252.80;;;;;;5095480;28;20032;-70
2021/04/02 02:31:03;;;;;;;12.60;6.43;;;256.00;2252.80;;;;;;5094742;28;20089;-71
2021/04/02 02:33:30;;;;;;;9.35;5.70;;;256.00;2252.80;;;;;;5095470;28;20793;-70
2021/04/02 02:35:56;;;;;;;8.07;5.88;;;231.30;2252.80;;;;;;5095345;28;20106;-70
2021/04/02 02:38:23;;;;;;;10.85;6.03;;;231.30;2252.80;;;;;;5093485;28;20118;-71
2021/04/02 02:40:49;;;;;;;9.15;5.75;;;231.30;2252.80;;;;;;5094636;28;20035;-70
2021/04/02 02:43:16;;;;;;;8.40;5.78;;;231.20;2252.80;;;;;;5095019;28;20027;-70
2021/04/02 02:45:42;;;;;;;8.43;5.47;;;231.30;2252.80;;;;;;5094702;28;20032;-71
2021/04/02 02:48:10;;;;;;;8.90;5.53;;;231.20;2252.80;;;;;;5095317;28;20028;-70
2021/04/02 02:50:39;;;;;;;10.68;5.68;;;231.20;2252.80;;;;;;5094252;28;20474;-70
2021/04/02 02:53:06;;;;;;;11.85;6.07;;;231.20;2252.80;;;;;;5094542;28;20031;-70
2021/04/02 02:55:34;;;;;;;12.00;6.43;;;231.30;2252.80;;;;;;5095062;28;20055;-70
2021/04/02 02:58:02;;;;;;;8.30;5.65;;;231.30;2252.80;;;;;;5095325;28;20020;-71
2021/04/02 03:00:34;;;;;;;8.23;5.80;;;231.20;2252.80;;;;;;5094364;28;20028;-71
2021/04/02 03:03:03;;;;;;;9.07;5.35;;;231.20;2252.80;;;;;;5094077;28;20036;-70
2021/04/02 03:05:29;;;;;;;9.00;5.78;;;231.30;2252.80;;;;;;5094833;28;20020;-70
2021/04/02 03:08:00;;;;;;;12.43;6.00;;;231.20;2252.80;;;;;;5094604;28;20071;-70
2021/04/02 03:10:27;;;;;;;8.48;5.32;;;231.30;2252.80;;;;;;5094995;28;20490;-70
2021/04/02 03:12:55;;;;;;;12.93;5.55;;;231.20;2252.80;;;;;;5094272;28;20020;-70
2021/04/02 03:15:23;;;;;;;10.60;6.10;;;231.20;2252.80;;;;;;5094378;28;20028;-69
2021/04/02 03:17:56;;;;;;;8.27;5.87;;;231.20;2252.80;;;;;;5094827;28;20020;-70
2021/04/02 03:20:23;;;;;;;7.88;5.70;;;231.20;2252.80;;;;;;5094800;28;20248;-69
2021/04/02 03:22:50;;;;;;;8.63;5.55;;;231.20;2252.80;;;;;;5093323;28;20551;-70
2021/04/02 03:25:19;;;;;;;9.35;5.68;;;231.20;2252.80;;;;;;5093185;28;20031;-69
2021/04/02 03:27:46;;;;;;;6.78;5.15;;;231.10;2252.80;;;;;;5093214;28;20157;-70
2021/04/02 03:30:14;;;;;;;9.73;5.70;;;231.00;2252.80;;;;;;5093591;28;20115;-71
2021/04/02 03:32:44;;;;;;;8.23;5.60;;;231.00;2252.80;;;;;;5090731;28;20152;-70
2021/04/02 03:35:12;;;;;;;8.80;5.97;;;231.00;2252.80;;;;;;5092813;28;20028;-70
2021/04/02 03:37:41;;;;;;;8.98;5.57;;;231.00;2252.80;;;;;;5092818;28;20024;-69
2021/04/02 03:40:13;;;;;;;8.45;5.63;;;231.00;2252.80;;;;;;5093328;28;20052;-71
2021/04/02 03:42:40;;;;;;;8.57;5.45;;;231.00;2252.80;;;;;;5090443;28;20020;-70
2021/04/02 03:45:11;;;;;;;7.88;5.40;;;231.00;2252.80;;;;;;5092800;28;20564;-71
2021/04/02 03:47:39;;;;;;;8.95;5.55;;;231.00;2252.80;;;;;;5093448;28;20036;-70
2021/04/02 03:50:12;;;;;;;8.50;5.65;;;230.90;2252.80;;;;;;5093737;28;20024;-70
2021/04/02 03:52:43;;;;;;;9.50;5.60;;;230.90;2252.80;;;;;;5098519;28;20031;-69
2021/04/02 03:55:13;;;;;;;11.00;5.45;;;230.90;2252.80;;;;;;5098056;28;20035;-71
2021/04/02 03:57:40;;;;;;;7.70;5.13;;;230.90;2252.80;;;;;;5097120;28;20024;-70
2021/04/02 04:00:18;;;;;;;8.40;5.95;;;231.00;2252.80;;;;;;5093931;28;20031;-71
2021/04/02 04:02:46;;;;;;;8.13;5.57;;;230.90;2252.80;;;;;;5077204;28;20026;-70
2021/04/02 04:05:14;;;;;;;11.35;5.68;;;230.90;2252.80;;;;;;5096548;28;20275;-71
2021/04/02 04:07:43;;;;;;;10.60;5.78;;;230.90;2252.80;;;;;;5096305;28;20034;-71
2021/04/02 04:10:15;;;;;;;9.27;5.93;;;231.00;2252.80;;;;;;5096338;28;20380;-69
2021/04/02 04:12:47;;;;;;;9.68;6.13;;;230.90;2252.80;;;;;;5096713;28;20407;-69
2021/04/02 04:15:14;;;;;;;9.95;6.25;;;230.90;2252.80;;;;;;5096763;28;20023;-71
2021/04/02 04:17:43;;;;;;;11.75;7.63;;;230.80;2252.80;;;;;;5096386;28;20095;-70
2021/04/02 04:20:12;;;;;;;8.88;5.95;;;230.90;2252.80;;;;;;5096688;28;20061;-71
2021/04/02 04:22:41;;;;;;;9.20;5.57;;;230.90;2252.80;;;;;;5096700;28;20426;-71
2021/04/02 04:25:09;;;;;;;10.02;6.00;;;231.00;2252.80;;;;;;5093700;28;20077;-71
2021/04/02 04:27:38;;;;;;;10.23;5.72;;;231.00;2252.80;;;;;;5096229;28;20024;-70
2021/04/02 04:30:05;;;;;;;8.27;5.90;;;231.00;2252.80;;;;;;5096048;28;20020;-71
2021/04/02 04:32:32;;;;;;;13.55;6.20;;;231.00;2252.80;;;;;;5095912;28;20055;-71
2021/04/02 04:35:01;;;;;;;11.30;5.70;;;231.00;2252.80;;;;;;5095648;28;20123;-71
2021/04/02 04:37:28;;;;;;;9.90;5.33;;;231.00;2252.80;;;;;;5093284;28;20020;-71
2021/04/02 04:39:55;;;;;;;8.95;6.00;;;231.30;2252.80;;;;;;5096365;28;20024;-71
2021/04/02 04:42:22;;;;;;;9.15;6.40;;;256.30;2252.80;;;;;;5096133;28;20024;-71
2021/04/02 04:44:55;;;;;;;7.70;5.85;;;256.50;2252.80;;;;;;5095250;28;20032;-70
2021/04/02 04:47:21;;;;;;;10.05;6.15;;;256.70;2252.80;;;;;;5095860;28;20102;-72
2021/04/02 04:49:47;;;;;;;12.30;6.35;;;256.90;2252.80;;;;;;5095850;28;20114;-72
2021/04/02 04:52:18;;;;;;;9.82;5.97;;;256.90;2252.80;;;;;;5095781;28;20055;-70
2021/04/02 04:54:48;;;;;;;11.57;5.53;;;256.80;2252.80;;;;;;5096577;28;20761;-70
2021/04/02 04:57:16;;;;;;;8.63;5.25;;;256.50;2252.80;;;;;;5096840;28;20067;-70
2021/04/02 04:59:42;;;;;;;12.38;5.90;;;256.50;2252.80;;;;;;5095971;28;20039;-70
2021/04/02 05:02:09;;;;;;;17.77;6.82;;;256.70;2252.80;;;;;;5095487;28;20376;-72
2021/04/02 05:04:36;;;;;;;13.48;8.52;;;256.90;2252.80;;;;;;5096724;28;20031;-71
2021/04/02 05:07:03;;;;;;;96.57;16.60;;;256.90;2252.80;;;;;;5096484;28;20032;-70
2021/04/02 05:09:31;;;;;;;20.77;11.50;;;281.70;2278.40;;;;;;5097136;28;20053;-70
2021/04/02 05:11:59;;;;;;;31.67;10.98;;;281.80;2278.40;;;;;;5096542;28;20030;-71
2021/04/02 05:14:26;;;;;;;16.52;8.25;;;281.90;2278.40;;;;;;5096559;28;20312;-71
2021/04/02 05:16:52;;;;;;;15.50;9.55;;;281.90;2278.40;;;;;;5096237;28;20123;-70
2021/04/02 05:19:19;;;;;;;25.90;10.90;;;281.90;2278.40;;;;;;5096432;28;20027;-71
2021/04/02 05:21:46;;;;;;;17.35;9.68;;;282.00;2278.40;;;;;;5096945;28;20115;-71
2021/04/02 05:24:12;;;;;;;18.83;10.05;;;282.20;2278.40;;;;;;5095853;28;20028;-71
2021/04/02 05:26:39;;;;;;;18.63;8.38;;;282.30;2278.40;;;;;;5096033;28;20581;-70
2021/04/02 05:29:05;;;;;;;12.10;7.75;;;307.20;2304.00;;;;;;5090005;28;20059;-71
2021/04/02 05:31:32;;;;;;;16.80;8.65;;;307.50;2304.00;;;;;;5098058;28;20419;-71
2021/04/02 05:33:59;;;;;;;13.30;7.82;;;307.70;2304.00;;;;;;5097671;28;20343;-70
2021/04/02 05:36:24;;;;;;;8.30;6.15;;;307.80;2304.00;;;;;;5097628;28;20081;-72
2021/04/02 05:38:50;;;;;;;13.88;7.07;;;308.10;2252.80;;;;;;5097904;28;20028;-72
2021/04/02 05:41:23;;;;;;;13.05;6.95;;;332.90;2304.00;;;;;;5097298;28;20378;-71
2021/04/02 05:43:55;;;;;;;15.77;7.68;;;333.00;2304.00;;;;;;5098099;28;20073;-71
2021/04/02 05:46:24;;;;;;;9.10;6.40;;;308.10;2304.00;;;;;;5097491;28;20032;-70
2021/04/02 05:49:00;;;;;;;9.75;5.97;;;308.10;2278.40;;;;;;5097880;28;20024;-70
2021/04/02 05:51:27;;;;;;;9.32;6.43;;;333.10;2278.40;;;;;;5098255;28;20023;-71
2021/04/02 05:53:56;;;;;;;10.98;6.10;;;333.50;2227.20;;;;;;5098417;28;20035;-71
2021/04/02 05:56:22;;;;;;;9.88;5.68;;;333.60;2201.60;;;;;;5098068;28;20023;-71
2021/04/02 05:58:49;;;;;;;9.20;5.88;;;358.70;2150.40;;;;;;5098479;28;20036;-70
2021/04/02 06:01:15;;;;;;;13.02;6.57;;;359.00;2124.80;;;;;;5098165;28;20016;-71
2021/04/02 06:03:42;;;;;;;13.50;6.75;;;384.10;2022.40;;;;;;5098103;28;20035;-71
2021/04/02 06:06:12;;;;;;;16.52;9.25;;;384.10;2022.40;;;;;;5097697;28;20028;-70
2021/04/02 06:08:39;;;;;;;41.00;24.17;;;384.60;1996.80;;;;;;5097788;28;20023;-71
2021/04/02 06:11:05;;;;;;;13.35;7.50;;;384.50;1894.40;;;;;;5097698;28;20311;-71
2021/04/02 06:13:31;;;;;;;11.35;6.28;;;384.20;1868.80;;;;;;5097509;28;20035;-71
2021/04/02 06:15:57;;;;;;;12.93;7.40;;;359.10;1920.00;;;;;;5097642;28;20032;-71
2021/04/02 06:18:24;;;;;;;13.10;6.68;;;358.60;1971.20;;;;;;5096666;28;20494;-71
2021/04/02 06:20:51;;;;;;;12.45;7.22;;;358.40;1971.20;;;;;;5101362;28;20016;-70
2021/04/02 06:23:25;;;;;;;13.77;7.97;;;358.40;1971.20;;;;;;5096303;28;20035;-71
2021/04/02 06:25:52;;;;;;;13.50;7.50;;;358.40;1971.20;;;;;;5093838;28;20089;-70
2021/04/02 06:28:23;;;;;;;14.30;8.52;;;333.70;1996.80;;;;;;5078582;28;20396;-70
2021/04/02 06:31:12;;;;;;;84.18;38.50;;;333.60;2099.20;;;;;;5095574;28;20031;-69
2021/04/02 06:33:43;;;;;;;83.05;41.72;;;333.70;2176.00;;;;;;5052982;28;20049;-68
2021/04/02 06:36:11;;;;;;;23.67;13.70;;;333.60;2329.60;;;;;;5048654;28;20052;-72
2021/04/02 06:38:41;;;;;;;28.75;14.48;;;333.30;2329.60;;;;;;5050735;28;20028;-70
2021/04/02 06:41:07;;;;;;;39.33;31.35;;;333.20;2329.60;;;;;;5052564;28;20052;-70
2021/04/02 06:43:45;;;;;;;15.90;12.38;;;333.10;2329.60;;;;;;5054507;28;20056;-71
2021/04/02 06:46:14;;;;;;;22.05;15.73;;;333.10;2329.60;;;;;;5054127;28;20061;-69
2021/04/02 06:48:40;;;;;;;22.67;15.10;;;308.10;2304.00;;;;;;5051240;28;20449;-69
2021/04/02 06:51:18;;;;;;;44.50;28.05;;;307.70;2304.00;;;;;;5052464;28;20064;-72
2021/04/02 06:53:45;;;;;;;63.97;35.72;;;307.70;2304.00;;;;;;5053521;28;20017;-69
2021/04/02 06:56:13;;;;;;;41.20;26.95;;;307.50;2304.00;;;;;;5055040;28;20339;-70
2021/04/02 06:58:41;;;;;;;35.10;24.83;;;307.20;2304.00;;;;;;5050791;28;20231;-70
2021/04/02 07:01:08;;;;;;;34.03;22.55;;;282.50;2278.40;;;;;;5053546;28;20051;-72
2021/04/02 07:03:36;;;;;;;26.33;17.92;;;282.40;2278.40;;;;;;5054754;28;20021;-68
2021/04/02 07:06:04;;;;;;;24.40;15.35;;;282.40;2278.40;;;;;;5054254;28;20037;-70
2021/04/02 07:08:32;;;;;;;31.15;17.15;;;282.40;2278.40;;;;;;5054290;28;20142;-71
2021/04/02 07:10:59;;;;;;;57.55;31.92;;;282.40;2278.40;;;;;;5053968;28;20420;-74
2021/04/02 07:13:33;;;;;;;27.70;17.40;;;282.50;2278.40;;;;;;5055379;28;20021;-72
2021/04/02 07:16:01;;;;;;;18.80;13.23;;;307.20;2304.00;;;;;;5052515;28;20347;-72
2021/04/02 07:18:28;;;;;;;15.98;10.20;;;307.20;2304.00;;;;;;5048182;28;20174;-72
2021/04/02 07:20:55;;;;;;;31.58;15.57;;;307.50;2304.00;;;;;;5055009;28;20052;-72
2021/04/02 07:23:21;;;;;;;13.18;7.95;;;307.70;2304.00;;;;;;5053670;28;20424;-69
2021/04/02 07:25:47;;;;;;;8.07;5.50;;;308.10;2304.00;;;;;;5058120;28;20153;-71
2021/04/02 07:28:14;;;;;;;7.85;5.38;;;333.30;2329.60;;;;;;5060054;28;20568;-70
2021/04/02 07:30:40;;;;;;;13.35;8.60;;;333.60;2329.60;;;;;;5059903;28;20032;-72
2021/04/02 07:33:09;;;;;;;17.17;8.30;;;333.60;2329.60;;;;;;5090419;28;20063;-71
2021/04/02 07:35:38;;;;;;;14.18;7.88;;;333.50;2329.60;;;;;;5100896;28;20077;-70
2021/04/02 07:38:15;;;;;;;10.20;7.55;;;358.40;2329.60;;;;;;5081886;28;20330;-71
2021/04/02 07:40:41;;;;;;;12.95;8.52;;;333.40;2329.60;;;;;;5099958;28;20047;-72
2021/04/02 07:43:08;;;;;;;15.55;9.23;;;333.20;2329.60;;;;;;5100158;28;20396;-71
2021/04/02 07:45:37;;;;;;;15.02;9.63;;;333.10;2329.60;;;;;;5099398;28;20020;-70
2021/04/02 07:48:25;;;;;;;13.85;9.93;;;333.30;2329.60;;;;;;5098122;28;20036;-70
2021/04/02 07:50:52;;;;;;;15.65;9.30;;;308.10;2304.00;;;;;;5079202;28;20020;-71
2021/04/02 07:53:24;;;;;;;15.32;10.60;;;332.90;2329.60;;;;;;5099925;28;20419;-70
2021/04/02 07:55:56;;;;;;;15.18;10.75;;;333.60;2329.60;;;;;;5098113;28;20024;-71
2021/04/02 07:58:27;;;;;;;15.85;9.30;;;358.60;2329.60;;;;;;5100350;28;20032;-70
2021/04/02 08:00:55;;;;;;;18.95;10.77;;;333.60;2329.60;;;;;;5100044;28;20485;-72
2021/04/02 08:03:23;;;;;;;15.00;9.68;;;358.60;2329.60;;;;;;5099526;28;20035;-70
2021/04/02 08:05:56;;;;;;;13.00;9.05;;;358.80;2329.60;;;;;;5098828;28;20423;-72
2021/04/02 08:08:23;;;;;;;14.77;10.15;;;358.80;2329.60;;;;;;5098373;28;20047;-72
2021/04/02 08:11:10;;;;;;;23.13;14.60;;;333.60;2329.60;;;;;;5098707;28;20020;-71
2021/04/02 08:13:59;;;;;;;24.58;15.20;;;333.40;2329.60;;;;;;5095822;28;20019;-73
2021/04/02 08:16:46;;;;;;;26.33;19.35;;;333.50;2329.60;;;;;;5098171;28;20034;-74
2021/04/02 08:19:26;;;;;;;26.05;17.38;;;333.40;2329.60;;;;;;5095873;28;20024;-72
2021/04/02 08:21:59;;;;;;;29.67;19.70;;;333.00;2329.60;;;;;;5090486;28;20024;-72
2021/04/02 08:24:35;;;;;;;25.73;17.95;;;333.10;2329.60;;;;;;5100036;28;20020;-72
2021/04/02 08:27:02;;;;;;;26.42;17.77;;;333.10;2329.60;;;;;;5099249;28;20031;-71
2021/04/02 08:29:30;;;;;;;30.15;23.45;;;333.20;2329.60;;;;;;5099894;28;20020;-71
2021/04/02 08:31:58;;;;;;;34.25;25.02;;;333.40;2329.60;;;;;;5098091;28;20079;-70
2021/04/02 08:34:26;;;;;;;32.20;20.50;;;358.40;2329.60;;;;;;5099677;28;20031;-72
2021/04/02 08:36:55;;;;;;;35.15;22.08;;;358.50;2329.60;;;;;;5096510;28;20024;-70
2021/04/02 08:39:24;;;;;;;;;;;358.80;2329.60;;;;;;5098422;28;20039;-71
2021/04/02 08:41:54;;;;;;;;;;;359.30;2329.60;;;;;;5097969;28;19904;-71
2021/04/02 08:44:27;;;;;;;29.33;18.55;;;384.30;2329.60;;;;;;5096031;28;19911;-71
2021/04/02 08:46:58;;;;;;;27.15;18.67;;;384.80;2329.60;;;;;;5096497;28;20042;-72
2021/04/02 08:49:24;;;;;;;21.65;15.57;;;384.80;2329.60;;;;;;5095862;28;20032;-72
2021/04/02 08:51:50;;;;;;;28.58;20.13;;;409.70;2355.20;;;;;;5097080;28;20296;-71
2021/04/02 08:54:20;;;;;;;25.67;19.63;;;410.10;2355.20;;;;;;5096538;28;20076;-70
2021/04/02 08:56:48;;;;;;;23.15;16.88;;;410.30;2355.20;;;;;;5096720;28;20024;-70
2021/04/02 08:59:14;;;;;;;22.65;15.43;;;435.20;2355.20;;;;;;5096822;28;20028;-71
2021/04/02 09:01:45;;;;;;;21.98;16.27;;;410.00;2355.20;;;;;;5096862;28;20089;-74
2021/04/02 09:04:13;;;;;;;20.23;14.02;;;410.00;2355.20;;;;;;5095155;28;20081;-72
2021/04/02 09:06:40;;;;;;;18.67;14.23;;;409.90;2355.20;;;;;;5094889;28;20026;-70
2021/04/02 09:09:23;;;;;;;18.70;12.45;;;409.90;2355.20;;;;;;5095794;28;20055;-69
2021/04/02 09:11:55;;;;;;;15.07;11.90;;;409.90;2355.20;;;;;;5096307;28;20035;-71
2021/04/02 09:14:22;;;;;;;19.58;11.65;;;410.20;2355.20;;;;;;5095273;28;20046;-70
2021/04/02 09:16:49;;;;;;;16.33;11.60;;;435.30;2355.20;;;;;;5096481;28;20023;-72
2021/04/02 09:19:30;;;;;;;17.33;9.50;;;435.40;2355.20;;;;;;5096062;28;20420;-71
2021/04/02 09:21:56;;;;;;;31.95;20.38;;;435.40;2355.20;;;;;;5096590;28;20026;-69
2021/04/02 09:24:22;;;;;;;35.97;25.02;;;435.40;2355.20;;;;;;5095807;28;20354;-72
2021/04/02 09:26:49;;;;;;;41.83;28.85;;;435.20;2355.20;;;;;;5078032;28;20028;-68
2021/04/02 09:29:17;;;;;;;36.30;22.60;;;435.70;2355.20;;;;;;5077998;28;20024;-71
2021/04/02 09:31:46;;;;;;;27.15;19.50;;;436.00;2355.20;;;;;;5092553;28;20044;-70
2021/04/02 09:34:18;;;;;;;11.57;8.70;;;460.80;2380.80;;;;;;5095807;28;20110;-70
2021/04/02 09:36:49;;;;;;;12.95;8.77;;;461.10;2380.80;;;;;;5094727;28;20032;-69
2021/04/02 09:39:21;;;;;;;11.63;8.80;;;461.60;2380.80;;;;;;5096445;28;20338;-70
2021/04/02 09:42:00;;;;;;;13.25;9.00;;;486.70;2329.60;;;;;;5094625;28;20024;-70
2021/04/02 09:44:27;;;;;;;;;;;487.00;2227.20;;;;;;5097076;28;20110;-70
2021/04/02 09:47:07;;;;;;;13.30;7.75;;;461.60;2304.00;;;;;;5097603;28;20330;-70
2021/04/02 09:49:35;;;;;;;12.88;9.10;;;461.40;2355.20;;;;;;5097411;28;20419;-69
2021/04/02 09:52:02;;;;;;;12.35;9.25;;;486.50;2355.20;;;;;;5097991;28;20020;-71
2021/04/02 09:54:30;;;;;;;12.88;9.48;;;486.60;2355.20;;;;;;5098509;28;20031;-68
2021/04/02 09:57:00;;;;;;;8.88;7.15;;;486.80;2329.60;;;;;;5098285;28;20030;-69
2021/04/02 09:59:26;;;;;;;12.30;7.00;;;486.50;2355.20;;;;;;5098111;28;20028;-70
2021/04/02 10:01:53;;;;;;;11.07;8.27;;;461.70;2380.80;;;;;;5098094;28;20147;-70
2021/04/02 10:04:19;;;;;;;12.90;8.32;;;486.90;2329.60;;;;;;5098321;28;20020;-68
2021/04/02 10:06:46;;;;;;;14.48;8.20;;;487.00;2304.00;;;;;;5097308;28;20082;-72
2021/04/02 10:09:12;;;;;;;13.70;7.20;;;512.00;2304.00;;;;;;5098080;28;20147;-70
2021/04/02 10:11:49;;;;;;;17.75;8.30;;;486.50;2252.80;;;;;;5097537;28;20027;-72
2021/04/02 10:14:17;;;;;;;10.48;6.72;;;460.80;2380.80;;;;;;5097871;28;20335;-71
2021/04/02 10:16:45;;;;;;;14.87;7.87;;;436.00;2355.20;;;;;;5097267;28;20024;-69
2021/04/02 10:19:15;;;;;;;15.68;8.55;;;461.20;2380.80;;;;;;5097979;28;20298;-69
2021/04/02 10:21:41;;;;;;;13.60;8.82;;;436.10;2355.20;;;;;;5098005;28;20039;-70
2021/04/02 10:24:07;;;;;;;21.95;9.48;;;461.00;2380.80;;;;;;5097413;28;20118;-69
2021/04/02 10:26:33;;;;;;;9.43;6.75;;;461.50;2380.80;;;;;;5097839;28;20031;-68
2021/04/02 10:28:59;;;;;;;13.23;7.25;;;486.90;2380.80;;;;;;5097751;28;20035;-70
2021/04/02 10:31:25;;;;;;;17.65;7.15;;;486.90;2304.00;;;;;;5096722;28;20183;-70
2021/04/02 10:33:51;;;;;;;10.73;6.40;;;461.50;2355.20;;;;;;5097455;28;20339;-71
2021/04/02 10:36:17;;;;;;;11.45;7.75;;;461.40;2380.80;;;;;;5097415;28;20056;-70
2021/04/02 10:38:44;;;;;;;9.55;6.13;;;486.70;2304.00;;;;;;5097143;28;20028;-69
2021/04/02 10:41:10;;;;;;;10.07;6.00;;;487.00;2304.00;;;;;;5097606;28;20027;-69
2021/04/02 10:43:36;;;;;;;10.40;5.88;;;486.50;2201.60;;;;;;5096984;28;20069;-72
2021/04/02 10:46:02;;;;;;;8.20;6.03;;;487.00;2252.80;;;;;;5097308;28;20031;-71
2021/04/02 10:48:28;;;;;;;8.55;5.88;;;512.60;2201.60;;;;;;5097030;28;20024;-71
2021/04/02 10:50:54;;;;;;;12.15;8.20;;;512.20;2073.60;;;;;;5096186;28;20028;-70
2021/04/02 10:53:23;;;;;;;14.00;10.23;;;512.40;2150.40;;;;;;5097007;28;20035;-71
2021/04/02 10:55:50;;;;;;;12.68;6.82;;;512.70;2124.80;;;;;;5097487;28;20024;-70
2021/04/02 10:58:16;;;;;;;11.40;5.63;;;512.20;2073.60;;;;;;5097528;28;20028;-71
2021/04/02 11:00:42;;;;;;;9.45;6.85;;;512.30;2048.00;;;;;;5095812;28;20411;-72
2021/04/02 11:03:08;;;;;;;12.15;7.65;;;487.30;2124.80;;;;;;5097071;28;20035;-71
2021/04/02 11:05:35;;;;;;;11.23;6.72;;;512.00;2124.80;;;;;;5097092;28;20068;-73
2021/04/02 11:08:01;;;;;;;13.40;8.18;;;512.20;2124.80;;;;;;5097162;28;20020;-71
2021/04/02 11:10:27;;;;;;;13.48;7.68;;;512.20;2099.20;;;;;;5097384;28;20028;-68
2021/04/02 11:12:54;;;;;;;19.48;7.82;;;512.70;2124.80;;;;;;5096899;28;20032;-71
2021/04/02 11:15:20;;;;;;;9.98;6.63;;;512.40;2048.00;;;;;;5097381;28;20081;-70
2021/04/02 11:17:47;;;;;;;10.65;5.57;;;512.50;2048.00;;;;;;5096225;28;20447;-71
2021/04/02 11:20:15;;;;;;;10.10;6.15;;;512.40;1971.20;;;;;;5077806;28;20035;-72
2021/04/02 11:22:42;;;;;;;19.35;9.20;;;537.90;2022.40;;;;;;5096878;28;20115;-70
2021/04/02 11:25:10;;;;;;;7.15;5.72;;;563.50;1945.60;;;;;;5095520;28;20109;-72
2021/04/02 11:27:36;;;;;;;8.27;6.13;;;564.10;1766.40;;;;;;5095577;28;20024;-72
2021/04/02 11:30:05;;;;;;;15.02;5.70;;;564.10;1817.60;;;;;;5096711;28;20028;-70
2021/04/02 11:32:31;;;;;;;9.93;7.03;;;563.80;1843.20;;;;;;5096734;28;20350;-73
2021/04/02 11:34:57;;;;;;;8.55;6.32;;;589.30;1766.40;;;;;;5096247;28;20047;-72
2021/04/02 11:37:23;;;;;;;9.70;5.97;;;614.40;1740.80;;;;;;5096986;28;20170;-72
2021/04/02 11:39:49;;;;;;;12.77;6.38;;;614.80;1689.60;;;;;;5097112;28;20024;-70
2021/04/02 11:42:15;;;;;;;10.02;5.63;;;640.00;1612.80;;;;;;5096236;28;20024;-71
2021/04/02 11:44:41;;;;;;;8.23;6.13;;;640.90;1561.60;;;;;;5096484;28;20017;-71
2021/04/02 11:47:07;;;;;;;8.52;5.53;;;666.00;1536.00;;;;;;5096390;28;20027;-71
2021/04/02 11:49:33;;;;;;;7.35;5.25;;;665.60;1536.00;;;;;;5096254;28;20028;-70
2021/04/02 11:51:59;;;;;;;7.53;5.00;;;665.70;1536.00;;;;;;5097054;28;20023;-71
2021/04/02 11:54:25;;;;;;;11.38;6.07;;;640.40;1536.00;;;;;;5096437;28;20028;-71
2021/04/02 11:56:51;;;;;;;15.32;6.03;;;615.30;1561.60;;;;;;5096166;28;20020;-70
2021/04/02 11:59:17;;;;;;;8.23;5.75;;;640.30;1536.00;;;;;;5096292;28;20030;-70
2021/04/02 12:01:43;;;;;;;10.05;6.82;;;640.90;1510.40;;;;;;5096417;28;20055;-72
2021/04/02 12:04:12;;;;;;;13.90;8.05;;;691.20;1459.20;;;;;;5096962;28;20063;-71
2021/04/02 12:06:39;;;;;;;26.55;15.77;;;666.50;1459.20;;;;;;5096823;28;20369;-71
2021/04/02 12:09:06;;;;;;;29.88;14.73;;;716.80;1433.60;;;;;;5096278;28;20055;-72
2021/04/02 12:11:33;;;;;;;17.40;8.80;;;717.70;1356.80;;;;;;5098000;28;20316;-71
2021/04/02 12:13:58;;;;;;;12.35;8.40;;;717.70;1331.20;;;;;;5100210;28;20437;-70
2021/04/02 12:16:25;;;;;;;24.98;13.82;;;742.90;1331.20;;;;;;5099639;28;20111;-71
2021/04/02 12:18:52;;;;;;;39.88;24.52;;;768.50;1254.40;;;;;;5100063;28;20331;-70